Time;durP1;ratioP1;P1;durP2;ratioP2;P2;SDS_P1;SDS_P2;PMS_P1;PMS_P2;Temp;Humidity;BMP_temperature;BMP_pressure;BME280_temperature;BME280_humidity;BME280_pressure;Samples;Min_cycle;Max_cycle;Signal;HPM_P1;HPM_P2
2021/03/26 00:02:17;;;;;;;10.27;6.37;;;;;;;;;;5100725;28;20292;-78
2021/03/26 00:04:44;;;;;;;8.23;6.23;;;;;;;;;;5100894;28;20250;-78
2021/03/26 00:07:11;;;;;;;9.67;6.53;;;;;;;;;;5100912;28;20282;-79
2021/03/26 00:09:38;;;;;;;11.87;6.40;;;;;;;;;;5100809;28;20220;-78
2021/03/26 00:12:08;;;;;;;10.37;5.67;;;;;;;;;;5100580;28;20216;-78
2021/03/26 00:14:35;;;;;;;7.67;5.60;;;;;;;;;;5100475;28;20304;-79
2021/03/26 00:17:02;;;;;;;8.37;5.60;;;;;;;;;;5100341;28;20209;-79
2021/03/26 00:19:30;;;;;;;6.97;5.27;;;;;;;;;;5100640;28;20209;-79
2021/03/26 00:21:57;;;;;;;8.37;5.60;;;;;;;;;;5100521;28;20229;-79
2021/03/26 00:24:24;;;;;;;7.67;5.60;;;;;;;;;;5100462;28;20268;-79
2021/03/26 00:26:52;;;;;;;8.60;6.03;;;;;;;;;;5100163;28;20245;-80
2021/03/26 00:29:20;;;;;;;8.37;5.47;;;;;;;;;;5102410;28;20599;-78
2021/03/26 00:31:47;;;;;;;9.13;6.33;;;;;;;;;;5103331;28;20240;-78
2021/03/26 00:34:16;;;;;;;11.57;6.10;;;;;;;;;;5101701;28;20237;-78
2021/03/26 00:36:43;;;;;;;10.20;6.37;;;;;;;;;;5102741;28;20221;-78
2021/03/26 00:39:10;;;;;;;8.17;6.40;;;;;;;;;;5111259;28;20583;-79
2021/03/26 00:41:37;;;;;;;10.50;5.93;;;;;;;;;;5119999;28;20236;-78
2021/03/26 00:44:05;;;;;;;10.73;6.10;;;;;;;;;;5120315;27;20204;-79
2021/03/26 00:46:34;;;;;;;8.53;5.43;;;;;;;;;;5114561;28;20237;-78
2021/03/26 00:49:01;;;;;;;8.47;5.77;;;;;;;;;;5100095;28;20251;-80
2021/03/26 00:51:28;;;;;;;12.73;6.40;;;;;;;;;;5100052;28;20233;-79
2021/03/26 00:53:55;;;;;;;9.50;5.93;;;;;;;;;;5100471;28;20232;-80
2021/03/26 00:56:22;;;;;;;10.13;5.90;;;;;;;;;;5100158;28;20292;-79
2021/03/26 00:58:49;;;;;;;13.47;6.17;;;;;;;;;;5099534;28;20593;-79
2021/03/26 01:01:16;;;;;;;11.77;6.10;;;;;;;;;;5099311;28;20240;-79
2021/03/26 01:03:44;;;;;;;10.57;6.23;;;;;;;;;;5099554;28;20318;-79
2021/03/26 01:06:11;;;;;;;6.87;5.13;;;;;;;;;;5106315;28;20727;-78
2021/03/26 01:08:38;;;;;;;7.93;5.63;;;;;;;;;;5120105;28;20269;-78
2021/03/26 01:11:06;;;;;;;8.57;5.13;;;;;;;;;;5119938;28;20205;-79
2021/03/26 01:13:33;;;;;;;10.40;4.83;;;;;;;;;;5120123;28;20211;-79
2021/03/26 01:16:00;;;;;;;10.10;5.93;;;;;;;;;;5120306;28;20311;-79
2021/03/26 01:18:28;;;;;;;9.53;5.27;;;;;;;;;;5119493;28;20308;-79
2021/03/26 01:20:57;;;;;;;8.97;5.40;;;;;;;;;;5119852;28;20295;-79
2021/03/26 01:23:25;;;;;;;5.90;5.30;;;;;;;;;;5119631;28;20236;-79
2021/03/26 01:25:52;;;;;;;6.57;5.00;;;;;;;;;;5119443;28;20253;-81
2021/03/26 01:28:20;;;;;;;8.00;4.97;;;;;;;;;;5119545;28;20280;-80
2021/03/26 01:30:48;;;;;;;7.50;5.13;;;;;;;;;;5110063;28;20672;-79
2021/03/26 01:33:15;;;;;;;8.17;5.03;;;;;;;;;;5098882;28;20243;-80
2021/03/26 01:35:42;;;;;;;6.40;5.20;;;;;;;;;;5112943;28;20269;-79
2021/03/26 01:38:10;;;;;;;8.20;5.03;;;;;;;;;;5119408;28;20270;-80
2021/03/26 01:40:41;;;;;;;7.37;5.13;;;;;;;;;;5119450;28;20228;-80
2021/03/26 01:43:10;;;;;;;7.07;4.93;;;;;;;;;;5119296;28;20236;-80
2021/03/26 01:45:38;;;;;;;7.13;5.10;;;;;;;;;;5119510;28;20308;-79
2021/03/26 01:48:07;;;;;;;7.57;4.80;;;;;;;;;;5100316;28;20736;-80
2021/03/26 01:50:34;;;;;;;5.87;4.67;;;;;;;;;;5098887;28;20206;-79
2021/03/26 01:53:01;;;;;;;9.73;5.90;;;;;;;;;;5097796;28;20575;-79
2021/03/26 01:55:37;;;;;;;7.13;4.93;;;;;;;;;;5098716;28;20259;-81
2021/03/26 01:58:05;;;;;;;8.00;4.53;;;;;;;;;;5098595;28;20220;-78
2021/03/26 02:00:33;;;;;;;7.13;5.40;;;;;;;;;;5098390;28;20293;-79
2021/03/26 02:03:06;;;;;;;9.57;5.03;;;;;;;;;;5098169;28;20351;-78
2021/03/26 02:05:33;;;;;;;8.03;4.83;;;;;;;;;;5098272;28;20600;-78
2021/03/26 02:08:02;;;;;;;7.00;5.47;;;;;;;;;;5098378;28;20315;-80
2021/03/26 02:10:30;;;;;;;6.23;4.70;;;;;;;;;;5098451;28;20295;-79
2021/03/26 02:13:00;;;;;;;8.23;4.73;;;;;;;;;;5098169;28;20667;-80
2021/03/26 02:15:29;;;;;;;5.97;4.70;;;;;;;;;;5098047;28;20256;-80
2021/03/26 02:17:56;;;;;;;5.70;4.50;;;;;;;;;;5097829;28;20316;-79
2021/03/26 02:20:27;;;;;;;5.20;4.20;;;;;;;;;;5098124;28;20727;-78
2021/03/26 02:22:55;;;;;;;5.37;3.97;;;;;;;;;;5098078;28;20260;-78
2021/03/26 02:25:24;;;;;;;6.00;4.90;;;;;;;;;;5097894;28;20261;-78
2021/03/26 02:27:52;;;;;;;7.30;5.97;;;;;;;;;;5098292;28;20256;-78
2021/03/26 02:30:20;;;;;;;8.23;5.73;;;;;;;;;;5102808;28;20271;-78
2021/03/26 02:32:48;;;;;;;9.03;5.90;;;;;;;;;;5097927;28;20237;-79
2021/03/26 02:35:18;;;;;;;8.47;5.90;;;;;;;;;;5101404;28;20300;-78
2021/03/26 02:37:47;;;;;;;11.83;6.80;;;;;;;;;;5098059;28;20289;-78
2021/03/26 02:40:15;;;;;;;14.10;7.70;;;;;;;;;;5118502;28;20234;-80
2021/03/26 02:42:44;;;;;;;11.70;7.10;;;;;;;;;;5118510;28;20258;-79
2021/03/26 02:45:14;;;;;;;14.67;7.73;;;;;;;;;;5118396;28;20267;-79
2021/03/26 02:47:45;;;;;;;10.97;7.40;;;;;;;;;;5103027;28;20610;-79
2021/03/26 02:50:15;;;;;;;13.27;6.90;;;;;;;;;;5098110;28;20216;-78
2021/03/26 02:52:46;;;;;;;10.87;6.33;;;;;;;;;;5114355;28;20303;-79
2021/03/26 02:55:18;;;;;;;8.43;7.10;;;;;;;;;;5108036;28;20264;-79
2021/03/26 02:57:49;;;;;;;8.77;6.80;;;;;;;;;;5097706;28;20312;-79
2021/03/26 03:00:19;;;;;;;9.20;5.93;;;;;;;;;;5097793;28;20721;-80
2021/03/26 03:02:48;;;;;;;11.03;6.40;;;;;;;;;;5097795;28;20202;-80
2021/03/26 03:05:17;;;;;;;9.33;7.20;;;;;;;;;;5100483;28;20229;-79
2021/03/26 03:07:45;;;;;;;12.67;6.47;;;;;;;;;;5101646;28;20668;-79
2021/03/26 03:10:18;;;;;;;10.77;6.70;;;;;;;;;;5101861;28;20232;-79
2021/03/26 03:12:46;;;;;;;9.17;6.60;;;;;;;;;;5101636;28;20206;-79
2021/03/26 03:15:16;;;;;;;10.83;6.87;;;;;;;;;;5101709;28;20251;-79
2021/03/26 03:17:48;;;;;;;12.73;6.50;;;;;;;;;;5101560;28;20261;-79
2021/03/26 03:20:17;;;;;;;10.07;5.73;;;;;;;;;;5101733;28;20205;-80
2021/03/26 03:22:46;;;;;;;9.03;6.73;;;;;;;;;;5101478;28;20205;-79
2021/03/26 03:25:14;;;;;;;9.07;5.80;;;;;;;;;;5101258;28;20233;-79
2021/03/26 03:27:43;;;;;;;10.40;6.90;;;;;;;;;;5101555;28;20205;-79
2021/03/26 03:30:24;;;;;;;10.47;6.77;;;;;;;;;;5106678;28;20595;-79
2021/03/26 03:32:57;;;;;;;8.43;6.10;;;;;;;;;;5101425;28;20213;-81
2021/03/26 03:35:27;;;;;;;7.73;6.57;;;;;;;;;;5105293;28;20232;-81
2021/03/26 03:37:59;;;;;;;10.70;6.97;;;;;;;;;;5101628;28;20692;-81
2021/03/26 03:40:30;;;;;;;8.57;6.37;;;;;;;;;;5121500;28;20641;-81
2021/03/26 03:43:01;;;;;;;13.33;6.10;;;;;;;;;;5121619;27;20288;-82
2021/03/26 03:45:33;;;;;;;7.43;5.57;;;;;;;;;;5121349;28;20231;-81
2021/03/26 03:48:03;;;;;;;10.67;6.73;;;;;;;;;;5104098;28;20736;-81
2021/03/26 03:50:32;;;;;;;10.20;6.73;;;;;;;;;;5101065;28;20589;-81
2021/03/26 03:53:04;;;;;;;9.17;6.23;;;;;;;;;;5100887;28;20744;-82
2021/03/26 03:55:33;;;;;;;12.80;5.93;;;;;;;;;;5101146;28;20257;-81
2021/03/26 03:58:02;;;;;;;8.47;5.70;;;;;;;;;;5100749;28;20264;-81
2021/03/26 04:00:32;;;;;;;12.40;6.23;;;;;;;;;;5101120;28;20209;-81
2021/03/26 04:03:02;;;;;;;9.77;6.53;;;;;;;;;;5107371;28;20213;-81
2021/03/26 04:05:33;;;;;;;11.40;6.90;;;;;;;;;;5121329;28;20249;-81
2021/03/26 04:08:04;;;;;;;9.83;6.60;;;;;;;;;;5121201;28;20638;-81
2021/03/26 04:10:32;;;;;;;9.57;6.17;;;;;;;;;;5120928;28;20237;-81
2021/03/26 04:13:02;;;;;;;12.93;7.07;;;;;;;;;;5120885;28;20201;-81
2021/03/26 04:15:31;;;;;;;10.27;6.43;;;;;;;;;;5120407;28;20237;-80
2021/03/26 04:18:01;;;;;;;9.20;6.73;;;;;;;;;;5120709;28;20304;-80
2021/03/26 04:20:30;;;;;;;11.70;7.03;;;;;;;;;;5120884;28;20291;-81
2021/03/26 04:23:00;;;;;;;9.87;6.67;;;;;;;;;;5121015;28;20288;-81
2021/03/26 04:25:28;;;;;;;10.97;6.97;;;;;;;;;;5120926;27;20250;-81
2021/03/26 04:27:59;;;;;;;10.43;7.37;;;;;;;;;;5120722;28;20711;-80
2021/03/26 04:30:27;;;;;;;10.27;7.43;;;;;;;;;;5114412;28;20325;-81
2021/03/26 04:32:55;;;;;;;15.00;7.40;;;;;;;;;;5099947;28;20629;-80
2021/03/26 04:35:24;;;;;;;11.53;7.67;;;;;;;;;;5104655;28;20305;-80
2021/03/26 04:37:57;;;;;;;10.53;6.90;;;;;;;;;;5100385;28;20632;-79
2021/03/26 04:40:26;;;;;;;9.73;8.00;;;;;;;;;;5112539;28;20266;-79
2021/03/26 04:42:57;;;;;;;9.73;6.73;;;;;;;;;;5101772;28;20240;-79
2021/03/26 04:45:27;;;;;;;11.13;6.83;;;;;;;;;;5120601;28;20316;-79
2021/03/26 04:47:57;;;;;;;10.27;7.27;;;;;;;;;;5107825;27;20258;-79
2021/03/26 04:50:26;;;;;;;10.63;7.50;;;;;;;;;;5132570;27;20211;-81
2021/03/26 04:52:56;;;;;;;16.73;8.33;;;;;;;;;;5132747;27;20224;-82
2021/03/26 04:55:26;;;;;;;16.67;9.83;;;;;;;;;;5127566;27;20307;-82
2021/03/26 04:57:55;;;;;;;15.43;8.53;;;;;;;;;;5134670;27;20252;-81
2021/03/26 05:00:23;;;;;;;16.10;8.30;;;;;;;;;;5136633;27;20690;-81
2021/03/26 05:02:54;;;;;;;12.63;7.80;;;;;;;;;;5130525;27;20212;-80
2021/03/26 05:05:23;;;;;;;10.13;7.20;;;;;;;;;;5134688;27;20273;-80
2021/03/26 05:07:52;;;;;;;11.40;8.30;;;;;;;;;;5127093;27;20246;-80
2021/03/26 05:10:21;;;;;;;13.20;7.57;;;;;;;;;;5131429;27;20273;-80
2021/03/26 05:12:49;;;;;;;9.87;7.40;;;;;;;;;;5124779;27;20200;-80
2021/03/26 05:15:21;;;;;;;10.63;7.60;;;;;;;;;;5118487;28;20256;-80
2021/03/26 05:17:49;;;;;;;11.63;7.27;;;;;;;;;;5099315;28;20213;-80
2021/03/26 05:20:27;;;;;;;11.80;7.10;;;;;;;;;;5099354;28;20213;-79
2021/03/26 05:22:56;;;;;;;13.63;7.57;;;;;;;;;;5099605;28;20288;-79
2021/03/26 05:25:27;;;;;;;9.97;7.77;;;;;;;;;;5099180;28;20307;-79
2021/03/26 05:27:54;;;;;;;10.27;6.13;;;;;;;;;;5098922;28;20755;-80
2021/03/26 05:30:23;;;;;;;16.20;6.67;;;;;;;;;;5104758;28;20317;-80
2021/03/26 05:33:13;;;;;;;13.53;6.90;;;;;;;;;;5098715;28;20240;-80
2021/03/26 05:35:45;;;;;;;13.00;6.20;;;;;;;;;;5103572;28;20221;-81
2021/03/26 05:38:15;;;;;;;11.50;6.70;;;;;;;;;;5102153;28;20242;-81
2021/03/26 05:40:57;;;;;;;12.23;7.17;;;;;;;;;;5119519;28;20235;-82
2021/03/26 05:43:29;;;;;;;14.70;6.33;;;;;;;;;;5119049;28;20291;-82
2021/03/26 05:46:00;;;;;;;8.97;6.03;;;;;;;;;;5119150;28;20274;-81
2021/03/26 05:48:29;;;;;;;8.60;6.17;;;;;;;;;;5098890;28;20288;-81
2021/03/26 05:51:01;;;;;;;8.83;6.17;;;;;;;;;;5098983;28;20220;-81
2021/03/26 05:53:30;;;;;;;9.83;6.47;;;;;;;;;;5098628;28;20632;-81
2021/03/26 05:56:03;;;;;;;11.07;6.33;;;;;;;;;;5098453;28;20308;-81
2021/03/26 05:58:37;;;;;;;13.30;6.40;;;;;;;;;;5098299;28;20672;-80
2021/03/26 06:01:10;;;;;;;10.73;6.97;;;;;;;;;;5098126;28;20646;-81
2021/03/26 06:03:46;;;;;;;12.97;5.83;;;;;;;;;;5098771;28;20255;-81
2021/03/26 06:06:31;;;;;;;8.60;5.87;;;;;;;;;;5105775;28;20267;-81
2021/03/26 06:09:25;;;;;;;12.30;6.40;;;;;;;;;;5118749;28;20642;-82
2021/03/26 06:12:11;;;;;;;7.00;5.47;;;;;;;;;;5082374;28;20296;-79
2021/03/26 06:14:46;;;;;;;11.83;5.80;;;;;;;;;;5118914;28;20264;-79
2021/03/26 06:17:30;;;;;;;11.60;6.33;;;;;;;;;;5118317;28;20211;-80
2021/03/26 06:20:14;;;;;;;11.37;5.77;;;;;;;;;;5118963;27;20236;-82
2021/03/26 06:23:14;;;;;;;9.33;6.23;;;;;;;;;;5118850;27;20236;-80
2021/03/26 06:25:51;;;;;;;12.37;6.43;;;;;;;;;;5055643;28;20756;-80
2021/03/26 06:28:33;;;;;;;11.60;5.90;;;;;;;;;;5055573;28;20285;-80
2021/03/26 06:31:16;;;;;;;10.93;6.90;;;;;;;;;;5094469;28;20613;-80
2021/03/26 06:34:11;;;;;;;9.43;6.50;;;;;;;;;;5118653;28;20232;-82
2021/03/26 06:36:59;;;;;;;8.90;6.50;;;;;;;;;;5097921;28;20760;-79
2021/03/26 06:39:32;;;;;;;10.23;7.20;;;;;;;;;;5107436;28;20256;-79
2021/03/26 06:42:09;;;;;;;9.77;6.77;;;;;;;;;;5118358;28;20240;-79
2021/03/26 06:44:47;;;;;;;13.53;6.57;;;;;;;;;;5116631;28;20250;-78
2021/03/26 06:47:17;;;;;;;12.67;5.23;;;;;;;;;;5112730;28;20940;-79
2021/03/26 06:49:51;;;;;;;12.37;7.13;;;;;;;;;;5099660;28;20245;-79
2021/03/26 06:52:29;;;;;;;10.20;6.93;;;;;;;;;;5100672;28;20205;-78
2021/03/26 06:55:10;;;;;;;12.27;6.77;;;;;;;;;;5104775;28;20269;-78
2021/03/26 06:57:55;;;;;;;9.07;6.63;;;;;;;;;;5118252;28;20675;-79
2021/03/26 07:00:35;;;;;;;11.70;6.13;;;;;;;;;;5112037;28;20207;-77
2021/03/26 07:03:18;;;;;;;8.23;6.03;;;;;;;;;;5109343;28;20209;-80
2021/03/26 07:05:57;;;;;;;8.27;5.60;;;;;;;;;;5108498;28;20241;-78
2021/03/26 07:08:45;;;;;;;9.17;5.40;;;;;;;;;;5106659;28;20295;-79
2021/03/26 07:11:18;;;;;;;9.63;5.67;;;;;;;;;;5097779;28;20237;-81
2021/03/26 07:13:54;;;;;;;9.83;6.03;;;;;;;;;;5105505;28;20259;-81
2021/03/26 07:16:33;;;;;;;6.73;5.60;;;;;;;;;;5117659;28;20232;-81
2021/03/26 07:19:09;;;;;;;8.30;4.63;;;;;;;;;;5117822;28;20305;-81
2021/03/26 07:21:42;;;;;;;9.63;4.83;;;;;;;;;;5102928;28;20233;-80
2021/03/26 07:24:30;;;;;;;9.67;5.23;;;;;;;;;;5097756;28;20202;-81
2021/03/26 07:27:09;;;;;;;8.87;5.67;;;;;;;;;;5107187;28;20204;-80
2021/03/26 07:29:54;;;;;;;7.90;5.43;;;;;;;;;;5113137;28;20297;-80
2021/03/26 07:32:35;;;;;;;9.87;6.07;;;;;;;;;;5097336;28;20259;-80
2021/03/26 07:35:21;;;;;;;9.97;5.47;;;;;;;;;;5105702;28;20303;-80
2021/03/26 07:37:54;;;;;;;11.10;6.70;;;;;;;;;;5098551;28;20236;-78
2021/03/26 07:40:34;;;;;;;11.20;7.33;;;;;;;;;;5107070;28;20225;-80
2021/03/26 07:43:06;;;;;;;18.77;8.17;;;;;;;;;;5109357;28;20206;-78
2021/03/26 07:45:38;;;;;;;15.97;7.63;;;;;;;;;;5098317;28;20228;-77
2021/03/26 07:48:27;;;;;;;12.97;8.50;;;;;;;;;;5097414;28;20213;-78
2021/03/26 07:50:57;;;;;;;10.90;7.80;;;;;;;;;;5097691;28;20208;-79
2021/03/26 07:53:40;;;;;;;11.77;7.50;;;;;;;;;;5114043;28;20201;-78
2021/03/26 07:56:14;;;;;;;10.70;7.70;;;;;;;;;;5121396;28;20267;-77
2021/03/26 07:58:56;;;;;;;12.53;8.03;;;;;;;;;;5109301;28;20221;-78
2021/03/26 08:01:45;;;;;;;15.07;7.83;;;;;;;;;;5111478;28;20281;-78
2021/03/26 08:04:17;;;;;;;15.27;7.47;;;;;;;;;;5114916;28;20200;-79
2021/03/26 08:07:02;;;;;;;10.77;8.03;;;;;;;;;;5114055;28;20224;-79
2021/03/26 08:09:38;;;;;;;11.47;9.77;;;;;;;;;;5111807;28;20265;-79
2021/03/26 08:12:11;;;;;;;13.67;8.50;;;;;;;;;;5112173;28;20236;-78
2021/03/26 08:14:56;;;;;;;18.10;8.70;;;;;;;;;;5113066;28;20247;-77
2021/03/26 08:17:27;;;;;;;22.97;8.03;;;;;;;;;;5110873;28;21080;-77
2021/03/26 08:20:07;;;;;;;15.10;8.20;;;;;;;;;;5111546;28;20217;-78
2021/03/26 08:22:39;;;;;;;18.17;8.07;;;;;;;;;;5111876;28;20667;-77
2021/03/26 08:25:17;;;;;;;14.67;7.90;;;;;;;;;;5111712;28;20664;-79
2021/03/26 08:27:47;;;;;;;9.13;6.77;;;;;;;;;;5111175;28;20196;-72
2021/03/26 08:30:23;;;;;;;8.10;6.40;;;;;;;;;;5111841;28;20320;-74
2021/03/26 08:33:14;;;;;;;9.83;6.07;;;;;;;;;;5110973;28;20289;-75
2021/03/26 08:35:58;;;;;;;13.40;6.70;;;;;;;;;;5111054;28;20218;-74
2021/03/26 08:38:32;;;;;;;10.10;6.20;;;;;;;;;;5110564;28;20197;-73
2021/03/26 08:41:01;;;;;;;7.97;6.43;;;;;;;;;;5109483;28;20224;-73
2021/03/26 08:43:29;;;;;;;10.47;6.20;;;;;;;;;;5111532;28;20284;-76
2021/03/26 08:46:01;;;;;;;8.77;6.17;;;;;;;;;;5112225;28;20327;-76
2021/03/26 08:48:32;;;;;;;11.63;6.60;;;;;;;;;;5110426;28;20708;-75
2021/03/26 08:51:08;;;;;;;8.60;6.17;;;;;;;;;;5114709;28;20282;-76
2021/03/26 08:53:40;;;;;;;7.60;5.77;;;;;;;;;;5099559;28;20295;-73
2021/03/26 08:56:26;;;;;;;8.27;6.20;;;;;;;;;;5099401;28;20601;-72
2021/03/26 08:59:06;;;;;;;5.93;5.20;;;;;;;;;;5099705;28;20221;-74
2021/03/26 09:01:46;;;;;;;11.53;6.27;;;;;;;;;;5109052;28;20295;-72
2021/03/26 09:04:33;;;;;;;7.70;5.63;;;;;;;;;;5117128;28;20664;-76
2021/03/26 09:07:09;;;;;;;6.50;5.30;;;;;;;;;;5109695;28;20227;-77
2021/03/26 09:09:43;;;;;;;7.53;5.83;;;;;;;;;;5099394;28;20259;-77
2021/03/26 09:12:24;;;;;;;9.47;5.77;;;;;;;;;;5113991;28;20232;-75
2021/03/26 09:14:59;;;;;;;8.17;5.50;;;;;;;;;;5098712;28;20229;-73
2021/03/26 09:17:28;;;;;;;6.53;5.83;;;;;;;;;;5098858;28;20641;-76
2021/03/26 09:19:59;;;;;;;8.57;6.03;;;;;;;;;;5099323;28;20229;-78
2021/03/26 09:22:39;;;;;;;8.83;5.43;;;;;;;;;;5099591;28;20202;-76
2021/03/26 09:25:24;;;;;;;5.70;5.03;;;;;;;;;;5099223;28;20293;-72
2021/03/26 09:27:53;;;;;;;8.57;5.23;;;;;;;;;;5106771;28;20209;-73
2021/03/26 09:30:22;;;;;;;9.17;6.20;;;;;;;;;;5117812;27;20229;-72
2021/03/26 09:32:51;;;;;;;10.37;6.93;;;;;;;;;;5118556;28;20197;-74
2021/03/26 09:35:21;;;;;;;9.83;5.57;;;;;;;;;;5111544;28;20688;-73
2021/03/26 09:37:51;;;;;;;9.97;5.50;;;;;;;;;;5099168;28;20233;-74
2021/03/26 09:40:25;;;;;;;7.87;5.43;;;;;;;;;;5098688;28;20270;-74
2021/03/26 09:42:55;;;;;;;7.70;5.73;;;;;;;;;;5118785;28;20236;-72
2021/03/26 09:45:25;;;;;;;6.07;4.83;;;;;;;;;;5102270;28;20230;-79
2021/03/26 09:48:20;;;;;;;9.60;5.43;;;;;;;;;;5106900;28;20268;-76
2021/03/26 09:50:51;;;;;;;7.93;5.67;;;;;;;;;;5081628;28;20205;-77
2021/03/26 09:53:19;;;;;;;8.87;5.77;;;;;;;;;;5098800;28;20261;-75
2021/03/26 09:55:47;;;;;;;8.00;4.67;;;;;;;;;;5098799;28;20229;-77
2021/03/26 09:58:23;;;;;;;7.43;5.90;;;;;;;;;;5098635;28;20239;-79
2021/03/26 10:00:53;;;;;;;6.90;5.00;;;;;;;;;;5100149;28;20233;-74
2021/03/26 10:03:35;;;;;;;14.60;5.40;;;;;;;;;;5119085;28;20228;-74
2021/03/26 10:06:05;;;;;;;10.50;5.63;;;;;;;;;;5106122;28;20316;-76
2021/03/26 10:08:44;;;;;;;6.03;4.37;;;;;;;;;;5119030;28;20216;-74
2021/03/26 10:11:14;;;;;;;6.90;4.60;;;;;;;;;;5114360;28;20232;-73
2021/03/26 10:13:44;;;;;;;7.63;5.03;;;;;;;;;;5108885;28;20280;-72
2021/03/26 10:16:12;;;;;;;6.33;4.43;;;;;;;;;;5111163;28;20224;-72
2021/03/26 10:18:42;;;;;;;8.43;5.00;;;;;;;;;;5105693;28;20621;-72
2021/03/26 10:21:12;;;;;;;10.87;5.10;;;;;;;;;;5108906;27;20236;-72
2021/03/26 10:23:45;;;;;;;10.30;5.30;;;;;;;;;;5111288;28;20283;-72
2021/03/26 10:26:17;;;;;;;10.83;5.63;;;;;;;;;;5110601;28;20223;-72
2021/03/26 10:29:01;;;;;;;8.13;4.70;;;;;;;;;;5100689;28;20284;-73
2021/03/26 10:31:33;;;;;;;8.83;5.10;;;;;;;;;;5103359;28;20544;-72
2021/03/26 10:34:02;;;;;;;9.50;4.60;;;;;;;;;;5114302;28;20234;-72
2021/03/26 10:36:31;;;;;;;5.97;3.97;;;;;;;;;;5105940;28;20240;-73
2021/03/26 10:39:05;;;;;;;4.77;3.83;;;;;;;;;;5107158;28;20222;-73
2021/03/26 10:41:35;;;;;;;8.17;3.50;;;;;;;;;;5111080;28;20276;-72
2021/03/26 10:44:06;;;;;;;4.77;3.30;;;;;;;;;;5112704;28;20296;-72
2021/03/26 10:46:36;;;;;;;10.97;3.93;;;;;;;;;;5103283;28;22022;-72
2021/03/26 10:49:04;;;;;;;7.00;4.03;;;;;;;;;;5108768;28;20716;-72
2021/03/26 10:51:42;;;;;;;6.77;4.00;;;;;;;;;;5108233;28;20648;-72
2021/03/26 10:54:12;;;;;;;6.77;4.27;;;;;;;;;;5109605;28;20232;-73
2021/03/26 10:56:57;;;;;;;6.83;4.83;;;;;;;;;;5116137;28;20233;-73
2021/03/26 10:59:33;;;;;;;15.27;5.47;;;;;;;;;;5115810;28;20235;-72
2021/03/26 11:02:18;;;;;;;10.07;5.03;;;;;;;;;;5114660;28;20196;-72
2021/03/26 11:04:46;;;;;;;12.37;4.80;;;;;;;;;;5109243;28;20221;-72
2021/03/26 11:07:28;;;;;;;6.50;4.83;;;;;;;;;;5097136;28;20201;-72
2021/03/26 11:09:57;;;;;;;13.77;5.30;;;;;;;;;;5114608;28;20228;-72
2021/03/26 11:12:28;;;;;;;5.10;4.60;;;;;;;;;;5116600;28;20339;-72
2021/03/26 11:15:01;;;;;;;8.00;5.27;;;;;;;;;;5116553;28;20304;-72
2021/03/26 11:17:36;;;;;;;8.93;5.33;;;;;;;;;;5106791;28;20280;-73
2021/03/26 11:20:23;;;;;;;6.77;4.77;;;;;;;;;;5108591;28;20724;-73
2021/03/26 11:22:56;;;;;;;7.03;5.60;;;;;;;;;;5102191;28;20728;-72
2021/03/26 11:25:27;;;;;;;13.77;5.93;;;;;;;;;;5102503;28;20256;-72
2021/03/26 11:27:55;;;;;;;7.80;5.17;;;;;;;;;;5116544;28;20201;-72
2021/03/26 11:30:33;;;;;;;8.77;6.03;;;;;;;;;;5118983;28;20311;-72
2021/03/26 11:33:03;;;;;;;10.13;5.70;;;;;;;;;;5118263;28;20200;-72
2021/03/26 11:35:35;;;;;;;9.47;6.43;;;;;;;;;;5115073;28;20236;-72
2021/03/26 11:38:10;;;;;;;11.77;6.20;;;;;;;;;;5100609;28;20213;-72
2021/03/26 11:40:39;;;;;;;10.63;7.13;;;;;;;;;;5118366;28;20266;-73
2021/03/26 11:43:09;;;;;;;10.63;6.83;;;;;;;;;;5115174;28;20197;-72
2021/03/26 11:45:38;;;;;;;13.27;6.67;;;;;;;;;;5107076;28;20791;-73
2021/03/26 11:48:14;;;;;;;10.63;6.63;;;;;;;;;;5105898;28;20720;-73
2021/03/26 11:50:45;;;;;;;10.27;6.90;;;;;;;;;;5116372;28;20193;-72
2021/03/26 11:53:30;;;;;;;9.53;7.13;;;;;;;;;;5111550;28;20232;-73
2021/03/26 11:56:10;;;;;;;9.17;7.07;;;;;;;;;;5115896;28;20832;-74
2021/03/26 11:58:40;;;;;;;16.33;8.10;;;;;;;;;;5112597;28;20209;-72
2021/03/26 12:01:09;;;;;;;13.57;7.63;;;;;;;;;;5100589;28;20312;-73
2021/03/26 12:03:42;;;;;;;9.93;7.10;;;;;;;;;;5111484;28;20200;-74
2021/03/26 12:06:15;;;;;;;8.13;6.03;;;;;;;;;;5112798;28;20225;-72
2021/03/26 12:09:00;;;;;;;9.40;7.13;;;;;;;;;;5112952;28;20229;-72
2021/03/26 12:11:33;;;;;;;10.40;7.53;;;;;;;;;;5100876;28;20232;-72
2021/03/26 12:14:07;;;;;;;13.30;7.87;;;;;;;;;;5100414;28;20288;-73
2021/03/26 12:16:36;;;;;;;16.83;8.87;;;;;;;;;;5100219;28;20237;-72
2021/03/26 12:19:06;;;;;;;13.83;7.73;;;;;;;;;;5100736;28;20228;-72
2021/03/26 12:21:42;;;;;;;15.87;10.53;;;;;;;;;;5114014;28;20205;-73
2021/03/26 12:24:17;;;;;;;12.90;8.00;;;;;;;;;;5102920;28;20200;-72
2021/03/26 12:26:53;;;;;;;13.87;8.43;;;;;;;;;;5120916;27;20293;-73
2021/03/26 12:29:27;;;;;;;14.33;8.80;;;;;;;;;;5120723;28;20224;-72
2021/03/26 12:32:01;;;;;;;15.17;8.90;;;;;;;;;;5113495;28;20223;-73
2021/03/26 12:34:32;;;;;;;11.30;8.73;;;;;;;;;;5102148;28;20239;-72
2021/03/26 12:37:01;;;;;;;11.00;8.63;;;;;;;;;;5099671;28;20259;-74
2021/03/26 12:39:31;;;;;;;13.40;8.63;;;;;;;;;;5099868;28;20232;-74
2021/03/26 12:42:05;;;;;;;13.23;8.83;;;;;;;;;;5109365;28;20243;-72
2021/03/26 12:44:35;;;;;;;16.37;9.93;;;;;;;;;;5120281;28;20249;-74
2021/03/26 12:47:20;;;;;;;14.77;9.87;;;;;;;;;;5108758;28;20657;-73
2021/03/26 12:49:55;;;;;;;16.80;9.13;;;;;;;;;;5107038;28;20201;-74
2021/03/26 12:52:39;;;;;;;13.70;8.60;;;;;;;;;;5120276;27;20243;-73
2021/03/26 12:55:10;;;;;;;15.53;8.80;;;;;;;;;;5120254;28;20224;-73
2021/03/26 12:57:43;;;;;;;10.37;7.67;;;;;;;;;;5115499;28;20284;-73
2021/03/26 13:00:13;;;;;;;12.47;8.47;;;;;;;;;;5119231;28;20220;-73
2021/03/26 13:02:42;;;;;;;13.03;9.20;;;;;;;;;;5119639;28;20229;-73
2021/03/26 13:05:11;;;;;;;12.47;8.83;;;;;;;;;;5119473;28;20251;-73
2021/03/26 13:07:42;;;;;;;14.27;8.80;;;;;;;;;;5099827;28;20209;-73
2021/03/26 13:10:23;;;;;;;13.93;8.63;;;;;;;;;;5099457;28;20267;-73
2021/03/26 13:12:52;;;;;;;13.90;8.37;;;;;;;;;;5099328;28;20205;-73
2021/03/26 13:15:22;;;;;;;11.33;8.50;;;;;;;;;;5102716;28;20231;-73
2021/03/26 13:17:50;;;;;;;12.17;7.70;;;;;;;;;;5108946;28;20213;-73
2021/03/26 13:20:19;;;;;;;11.33;8.23;;;;;;;;;;5099345;28;20304;-73
2021/03/26 13:22:47;;;;;;;13.10;9.33;;;;;;;;;;5099529;28;20201;-73
2021/03/26 13:25:20;;;;;;;10.63;8.30;;;;;;;;;;5099401;28;20232;-74
2021/03/26 13:27:49;;;;;;;15.70;8.77;;;;;;;;;;5099580;28;20263;-75
2021/03/26 13:30:32;;;;;;;12.90;8.43;;;;;;;;;;5103925;28;20324;-73
2021/03/26 13:33:25;;;;;;;12.37;8.47;;;;;;;;;;5108702;28;20213;-73
2021/03/26 13:36:06;;;;;;;10.80;7.73;;;;;;;;;;5083489;27;20722;-73
2021/03/26 13:38:52;;;;;;;11.10;7.67;;;;;;;;;;5119692;28;20204;-73
2021/03/26 13:41:34;;;;;;;10.77;7.60;;;;;;;;;;5119273;28;20760;-73
2021/03/26 13:44:08;;;;;;;12.90;7.80;;;;;;;;;;5117043;28;20662;-73
2021/03/26 13:46:35;;;;;;;9.63;6.90;;;;;;;;;;5111307;28;20233;-73
2021/03/26 13:49:09;;;;;;;10.70;7.23;;;;;;;;;;5099393;28;20641;-73
2021/03/26 13:51:38;;;;;;;11.57;6.77;;;;;;;;;;5110021;28;20293;-73
2021/03/26 13:54:29;;;;;;;9.10;6.53;;;;;;;;;;5098579;28;20217;-73
2021/03/26 13:56:56;;;;;;;8.10;6.40;;;;;;;;;;5104091;28;20236;-73
2021/03/26 13:59:30;;;;;;;9.40;6.50;;;;;;;;;;5110088;28;20224;-74
2021/03/26 14:01:59;;;;;;;11.10;6.50;;;;;;;;;;5109772;28;20259;-73
2021/03/26 14:04:29;;;;;;;9.57;6.70;;;;;;;;;;5112705;28;20220;-73
2021/03/26 14:06:59;;;;;;;12.07;6.30;;;;;;;;;;5112572;28;20193;-73
2021/03/26 14:09:38;;;;;;;7.33;6.00;;;;;;;;;;5118872;28;20292;-73
2021/03/26 14:12:07;;;;;;;7.33;6.00;;;;;;;;;;5118828;28;20209;-73
2021/03/26 14:14:42;;;;;;;16.13;5.73;;;;;;;;;;5118665;28;20717;-73
2021/03/26 14:17:19;;;;;;;13.17;5.63;;;;;;;;;;5118341;28;20243;-73
2021/03/26 14:19:50;;;;;;;11.20;5.97;;;;;;;;;;5118889;28;20228;-73
2021/03/26 14:22:21;;;;;;;8.77;5.80;;;;;;;;;;5118486;28;20204;-73
2021/03/26 14:25:09;;;;;;;7.53;5.80;;;;;;;;;;5105513;28;20229;-73
2021/03/26 14:27:40;;;;;;;11.97;5.70;;;;;;;;;;5104696;28;20207;-73
2021/03/26 14:30:17;;;;;;;7.60;5.33;;;;;;;;;;5114642;28;20230;-73
2021/03/26 14:32:59;;;;;;;12.83;6.13;;;;;;;;;;5098161;28;20545;-74
2021/03/26 14:35:31;;;;;;;8.87;5.37;;;;;;;;;;5093690;28;20240;-74
2021/03/26 14:38:00;;;;;;;8.40;5.03;;;;;;;;;;5098245;28;20206;-73
2021/03/26 14:40:29;;;;;;;7.90;5.27;;;;;;;;;;5102882;28;20231;-74
2021/03/26 14:42:59;;;;;;;5.87;5.27;;;;;;;;;;5118409;28;20204;-73
2021/03/26 14:45:29;;;;;;;6.77;5.13;;;;;;;;;;5118056;28;20703;-74
2021/03/26 14:48:17;;;;;;;10.67;5.63;;;;;;;;;;5101650;28;20205;-74
2021/03/26 14:50:48;;;;;;;7.60;4.60;;;;;;;;;;5094696;28;20355;-74
2021/03/26 14:53:17;;;;;;;10.33;4.73;;;;;;;;;;5097830;28;20209;-72
2021/03/26 14:55:48;;;;;;;7.57;5.17;;;;;;;;;;5104950;28;20587;-73
2021/03/26 14:58:21;;;;;;;9.70;5.13;;;;;;;;;;5110893;28;20740;-73
2021/03/26 15:00:49;;;;;;;7.00;4.70;;;;;;;;;;5110253;28;20292;-73
2021/03/26 15:03:26;;;;;;;7.53;4.97;;;;;;;;;;5115785;28;20250;-73
2021/03/26 15:05:58;;;;;;;6.53;4.93;;;;;;;;;;5102294;28;20312;-73
2021/03/26 15:08:34;;;;;;;8.00;4.57;;;;;;;;;;5102119;28;20205;-73
2021/03/26 15:11:03;;;;;;;6.23;4.47;;;;;;;;;;5101778;28;20669;-73